createdAt,value
2017-08-30T00:02:07.187Z,7.30
2017-08-30T00:04:38.699Z,7.10
2017-08-30T00:07:09.180Z,5.60
2017-08-30T00:09:38.863Z,5.20
2017-08-30T00:12:08.638Z,6.00
2017-08-30T00:14:37.925Z,6.00
2017-08-30T00:17:07.392Z,6.80
2017-08-30T00:19:36.825Z,6.60
2017-08-30T00:22:08.681Z,6.30
2017-08-30T00:24:49.431Z,5.60
2017-08-30T00:27:19.585Z,6.20
2017-08-30T00:29:49.266Z,6.60
2017-08-30T00:32:19.443Z,6.50
2017-08-30T00:34:52.443Z,7.00
2017-08-30T00:37:23.898Z,7.50
2017-08-30T00:39:54.467Z,7.20
2017-08-30T00:42:25.384Z,8.30
2017-08-30T00:44:58.482Z,7.50
2017-08-30T00:47:32.394Z,8.40
2017-08-30T00:50:04.182Z,8.50
2017-08-30T00:52:33.630Z,8.90
2017-08-30T00:55:02.846Z,9.00
2017-08-30T00:57:33.331Z,8.90
2017-08-30T01:00:04.023Z,8.90
2017-08-30T01:02:33.504Z,8.90
2017-08-30T01:05:05.350Z,9.10
2017-08-30T01:07:34.745Z,10.20
2017-08-30T01:10:03.999Z,9.80
2017-08-30T01:12:35.377Z,9.40
2017-08-30T01:15:05.282Z,10.80
2017-08-30T01:17:34.492Z,10.20
2017-08-30T01:20:03.754Z,9.20
2017-08-30T01:22:33.638Z,10.00
2017-08-30T01:25:06.939Z,10.30
2017-08-30T01:27:36.436Z,10.20
2017-08-30T01:30:08.576Z,10.40
2017-08-30T01:32:41.562Z,10.70
2017-08-30T01:35:13.716Z,10.80
2017-08-30T01:37:43.848Z,10.90
2017-08-30T01:40:14.298Z,14.20
2017-08-30T01:42:43.436Z,18.40
2017-08-30T01:45:12.925Z,19.50
2017-08-30T01:47:42.791Z,20.00
2017-08-30T01:50:12.869Z,19.80
2017-08-30T01:52:42.320Z,20.00
2017-08-30T01:55:12.592Z,20.20
2017-08-30T01:57:42.357Z,20.60
2017-08-30T02:00:14.798Z,20.60
2017-08-30T02:05:21.969Z,21.30
2017-08-30T02:07:51.124Z,22.00
2017-08-30T02:10:20.612Z,21.70
2017-08-30T02:15:25.241Z,22.50
2017-08-30T02:17:54.828Z,22.60
2017-08-30T02:20:25.393Z,23.10
2017-08-30T02:22:57.977Z,23.90
2017-08-30T02:25:27.499Z,24.20
2017-08-30T02:27:58.073Z,25.10
2017-08-30T02:30:27.484Z,25.80
2017-08-30T02:32:57.125Z,26.60
2017-08-30T02:35:28.157Z,27.80
2017-08-30T02:37:56.886Z,29.10
2017-08-30T02:40:25.692Z,29.70
2017-08-30T02:42:54.644Z,30.10
2017-08-30T02:45:24.024Z,30.20
2017-08-30T02:47:53.300Z,31.00
2017-08-30T02:50:22.525Z,31.60
2017-08-30T02:52:52.180Z,32.00
2017-08-30T02:55:21.451Z,32.80
2017-08-30T02:57:50.880Z,33.80
2017-08-30T03:00:20.146Z,34.50
2017-08-30T03:02:56.039Z,34.60
2017-08-30T03:05:27.211Z,35.40
2017-08-30T03:07:56.505Z,36.00
2017-08-30T03:10:26.939Z,36.40
2017-08-30T03:12:56.173Z,36.90
2017-08-30T03:15:25.267Z,37.40
2017-08-30T03:17:54.691Z,37.80
2017-08-30T03:20:24.139Z,38.20
2017-08-30T03:22:53.425Z,38.20
2017-08-30T03:25:23.141Z,37.90
2017-08-30T03:27:52.253Z,38.10
2017-08-30T03:30:21.495Z,38.70
2017-08-30T03:32:50.772Z,38.20
2017-08-30T03:35:20.358Z,38.30
2017-08-30T03:37:49.931Z,38.70
2017-08-30T03:40:19.467Z,38.70
2017-08-30T03:42:48.672Z,39.10
2017-08-30T03:45:17.749Z,39.30
2017-08-30T03:47:47.335Z,39.50
2017-08-30T03:50:16.491Z,39.70
2017-08-30T03:52:45.969Z,40.50
2017-08-30T03:55:15.301Z,40.40
2017-08-30T03:57:44.568Z,40.50
2017-08-30T04:00:13.781Z,40.60
2017-08-30T04:02:43.145Z,41.50
2017-08-30T04:05:14.364Z,41.50
2017-08-30T04:07:48.594Z,41.60
2017-08-30T04:10:17.655Z,41.80
2017-08-30T04:12:47.216Z,41.40
2017-08-30T04:15:16.611Z,42.40
2017-08-30T04:17:45.907Z,42.80
2017-08-30T04:20:15.082Z,43.10
2017-08-30T04:22:44.634Z,43.20
2017-08-30T04:25:13.976Z,43.60
2017-08-30T04:27:43.438Z,43.70
2017-08-30T04:30:12.563Z,44.10
2017-08-30T04:32:41.888Z,44.20
2017-08-30T04:35:11.158Z,44.60
2017-08-30T04:37:40.424Z,45.20
2017-08-30T04:40:09.492Z,45.70
2017-08-30T04:42:38.803Z,46.30
2017-08-30T04:45:08.069Z,46.60
2017-08-30T04:47:37.064Z,46.80
2017-08-30T04:50:06.274Z,47.10
2017-08-30T04:52:35.552Z,47.60
2017-08-30T04:55:04.619Z,47.70
2017-08-30T04:57:34.030Z,47.70
2017-08-30T05:00:03.635Z,48.00
2017-08-30T05:02:32.910Z,48.70
2017-08-30T05:05:02.027Z,48.60
2017-08-30T05:07:31.263Z,48.80
2017-08-30T05:10:01.311Z,48.80
2017-08-30T05:12:31.475Z,49.20
2017-08-30T05:15:00.577Z,49.60
2017-08-30T05:17:29.858Z,49.70
2017-08-30T05:19:59.302Z,50.00
2017-08-30T05:22:28.707Z,50.30
2017-08-30T05:24:57.963Z,51.20
2017-08-30T05:27:27.214Z,51.30
2017-08-30T05:29:56.476Z,51.90
2017-08-30T05:32:25.701Z,52.50
2017-08-30T05:34:55.032Z,53.10
2017-08-30T05:37:24.493Z,53.30
2017-08-30T05:39:53.582Z,53.60
2017-08-30T05:42:22.880Z,53.70
2017-08-30T05:44:52.113Z,54.10
2017-08-30T05:47:21.316Z,54.50
2017-08-30T05:49:50.616Z,54.70
2017-08-30T05:52:19.927Z,54.70
2017-08-30T05:54:49.395Z,55.40
2017-08-30T05:57:18.674Z,55.60
2017-08-30T05:59:47.979Z,56.30
2017-08-30T06:02:18.743Z,56.30
2017-08-30T06:04:47.606Z,56.60
2017-08-30T06:07:16.445Z,56.70
2017-08-30T06:09:45.105Z,57.10
2017-08-30T06:12:15.337Z,57.00
2017-08-30T06:14:44.491Z,57.10
2017-08-30T06:17:13.904Z,57.50
2017-08-30T06:19:43.073Z,57.40
2017-08-30T06:22:12.262Z,57.90
2017-08-30T06:24:41.574Z,57.60
2017-08-30T06:27:10.902Z,57.40
2017-08-30T06:29:40.048Z,58.00
2017-08-30T06:32:09.237Z,58.50
2017-08-30T06:34:39.370Z,58.90
2017-08-30T06:37:13.836Z,58.90
2017-08-30T06:39:43.913Z,58.90
2017-08-30T06:42:13.038Z,58.90
2017-08-30T06:44:42.921Z,58.90
2017-08-30T06:47:12.187Z,58.90
2017-08-30T06:49:41.793Z,59.10
2017-08-30T06:52:11.100Z,58.90
2017-08-30T06:54:40.443Z,58.90
2017-08-30T06:57:09.820Z,59.50
2017-08-30T06:59:39.185Z,60.10
2017-08-30T07:02:15.291Z,60.60
2017-08-30T07:04:44.362Z,60.20
2017-08-30T07:07:13.789Z,60.60
2017-08-30T07:09:42.936Z,61.10
2017-08-30T07:12:12.282Z,61.60
2017-08-30T07:14:42.052Z,61.60
2017-08-30T07:17:11.552Z,61.40
2017-08-30T07:19:40.700Z,61.40
2017-08-30T07:22:10.100Z,61.50
2017-08-30T07:24:39.449Z,61.90
2017-08-30T07:27:08.781Z,61.80
2017-08-30T07:29:38.004Z,61.70
2017-08-30T07:32:07.298Z,61.60
2017-08-30T07:34:36.708Z,61.30
2017-08-30T07:37:05.782Z,61.60
2017-08-30T07:39:35.154Z,61.50
2017-08-30T07:42:04.201Z,61.50
2017-08-30T07:44:33.555Z,61.40
2017-08-30T07:47:02.831Z,61.50
2017-08-30T07:49:32.690Z,61.80
2017-08-30T07:52:02.882Z,62.80
2017-08-30T07:54:32.234Z,62.60
2017-08-30T07:57:02.102Z,62.30
2017-08-30T07:59:31.554Z,62.50
2017-08-30T08:02:01.535Z,62.30
2017-08-30T08:04:31.991Z,62.00
2017-08-30T08:07:01.035Z,61.70
2017-08-30T08:09:30.735Z,62.20
2017-08-30T08:12:00.094Z,62.50
2017-08-30T08:14:29.502Z,62.40
2017-08-30T08:16:59.724Z,63.20
2017-08-30T08:19:28.791Z,63.00
2017-08-30T08:21:58.072Z,62.70
2017-08-30T08:24:27.405Z,63.10
2017-08-30T08:26:56.636Z,64.00
2017-08-30T08:29:25.674Z,63.80
2017-08-30T08:31:54.911Z,64.10
2017-08-30T08:34:24.110Z,63.90
2017-08-30T08:36:53.502Z,64.40
2017-08-30T08:39:22.897Z,64.30
2017-08-30T08:41:52.317Z,64.70
2017-08-30T08:44:21.754Z,64.60
2017-08-30T08:46:50.973Z,65.20
2017-08-30T08:49:20.225Z,65.10
2017-08-30T08:51:49.683Z,64.80
2017-08-30T08:54:19.112Z,66.00
2017-08-30T08:56:48.346Z,65.40
2017-08-30T08:59:17.720Z,65.80
2017-08-30T09:01:46.966Z,66.40
2017-08-30T09:04:16.187Z,66.40
2017-08-30T09:06:45.319Z,66.60
2017-08-30T09:09:14.743Z,66.30
2017-08-30T09:11:43.811Z,66.40
2017-08-30T09:14:13.354Z,66.20
2017-08-30T09:16:42.591Z,65.70
2017-08-30T09:19:12.662Z,65.60
2017-08-30T09:21:41.984Z,66.10
2017-08-30T09:24:11.029Z,66.10
2017-08-30T09:26:40.246Z,66.10
2017-08-30T09:29:09.608Z,67.20
2017-08-30T09:31:39.048Z,67.90
2017-08-30T09:34:08.201Z,68.20
2017-08-30T09:36:37.566Z,68.30
2017-08-30T09:39:06.739Z,68.40
2017-08-30T09:41:35.831Z,69.40
2017-08-30T09:44:05.216Z,69.00
2017-08-30T09:46:34.396Z,69.60
2017-08-30T09:49:03.717Z,70.70
2017-08-30T09:51:35.494Z,70.70
2017-08-30T09:54:04.730Z,70.20
2017-08-30T09:56:34.116Z,70.10
2017-08-30T09:59:03.434Z,69.50
2017-08-30T10:01:32.567Z,71.20
2017-08-30T10:04:02.090Z,71.30
2017-08-30T10:06:31.272Z,71.00
2017-08-30T10:09:00.642Z,71.30
2017-08-30T10:11:30.823Z,71.20
2017-08-30T10:14:00.252Z,71.10
2017-08-30T10:16:29.576Z,72.00
2017-08-30T10:18:58.852Z,71.20
2017-08-30T10:21:28.551Z,71.40
2017-08-30T10:23:57.777Z,72.60
2017-08-30T10:26:27.110Z,72.60
2017-08-30T10:28:56.461Z,73.40
2017-08-30T10:31:25.628Z,72.70
2017-08-30T10:33:54.737Z,72.30
2017-08-30T10:36:23.982Z,72.80
2017-08-30T10:38:53.323Z,72.40
2017-08-30T10:41:22.363Z,74.70
2017-08-30T10:43:51.630Z,74.40
2017-08-30T10:46:20.760Z,74.80
2017-08-30T10:48:49.938Z,75.80
2017-08-30T10:51:19.226Z,75.80
2017-08-30T10:53:48.493Z,74.90
2017-08-30T10:56:18.110Z,75.60
2017-08-30T10:58:48.460Z,74.80
2017-08-30T11:01:17.774Z,74.40
2017-08-30T11:03:46.950Z,74.20
2017-08-30T11:06:16.392Z,74.20
2017-08-30T11:08:45.455Z,73.90
2017-08-30T11:11:14.688Z,75.10
2017-08-30T11:13:43.953Z,74.40
2017-08-30T11:16:13.187Z,74.40
2017-08-30T11:18:42.433Z,74.80
2017-08-30T11:21:11.755Z,74.60
2017-08-30T11:23:41.241Z,74.70
2017-08-30T11:26:10.391Z,74.00
2017-08-30T11:28:39.863Z,74.30
2017-08-30T11:31:09.198Z,73.90
2017-08-30T11:33:38.424Z,74.50
2017-08-30T11:36:07.490Z,74.30
2017-08-30T11:38:37.152Z,74.50
2017-08-30T11:41:06.447Z,74.10
2017-08-30T11:43:36.031Z,73.90
2017-08-30T11:46:05.530Z,73.60
2017-08-30T11:48:34.611Z,73.90
2017-08-30T11:51:04.054Z,74.10
2017-08-30T11:53:33.396Z,73.50
2017-08-30T11:56:02.526Z,73.30
2017-08-30T11:58:31.782Z,73.40
2017-08-30T12:01:01.304Z,74.30
2017-08-30T12:03:30.458Z,73.60
2017-08-30T12:05:59.659Z,74.10
2017-08-30T12:08:29.047Z,73.80
2017-08-30T12:10:58.407Z,74.00
2017-08-30T12:13:27.822Z,74.20
2017-08-30T12:15:57.151Z,74.30
2017-08-30T12:18:26.366Z,74.90
2017-08-30T12:20:55.928Z,74.80
2017-08-30T12:23:25.027Z,74.70
2017-08-30T12:25:55.858Z,74.00
2017-08-30T12:28:25.107Z,74.00
2017-08-30T12:30:54.354Z,73.80
2017-08-30T12:33:23.809Z,73.60
2017-08-30T12:35:52.936Z,73.10
2017-08-30T12:38:27.884Z,73.30
2017-08-30T12:40:57.196Z,72.70
2017-08-30T12:43:27.361Z,73.10
2017-08-30T12:45:56.831Z,73.00
2017-08-30T12:48:26.470Z,73.20
2017-08-30T12:50:56.117Z,73.60
2017-08-30T12:53:25.817Z,73.70
2017-08-30T12:55:55.245Z,74.00
2017-08-30T12:58:24.450Z,73.80
2017-08-30T13:00:53.738Z,74.10
2017-08-30T13:03:22.882Z,73.90
2017-08-30T13:05:52.234Z,72.90
2017-08-30T13:08:21.745Z,73.00
2017-08-30T13:10:50.885Z,72.50
2017-08-30T13:13:20.344Z,72.10
2017-08-30T13:15:49.717Z,72.00
2017-08-30T13:18:18.846Z,71.70
2017-08-30T13:20:48.241Z,71.50
2017-08-30T13:23:17.472Z,70.60
2017-08-30T13:25:46.668Z,70.00
2017-08-30T13:28:16.908Z,70.10
2017-08-30T13:30:46.359Z,69.50
2017-08-30T13:33:15.541Z,68.60
2017-08-30T13:35:44.834Z,68.50
2017-08-30T13:38:14.097Z,68.50
2017-08-30T13:40:43.583Z,68.00
2017-08-30T13:43:12.877Z,68.00
2017-08-30T13:45:42.097Z,67.20
2017-08-30T13:48:12.545Z,66.90
2017-08-30T13:50:41.948Z,66.10
2017-08-30T13:53:11.114Z,65.90
2017-08-30T13:55:40.277Z,65.60
2017-08-30T13:58:09.491Z,65.30
2017-08-30T14:00:38.610Z,65.20
2017-08-30T14:03:08.084Z,64.40
2017-08-30T14:05:37.368Z,64.50
2017-08-30T14:08:06.341Z,64.00
2017-08-30T14:10:35.935Z,64.10
2017-08-30T14:13:05.422Z,63.90
2017-08-30T14:15:34.893Z,63.80
2017-08-30T14:18:04.117Z,63.80
2017-08-30T14:20:33.231Z,63.60
2017-08-30T14:23:02.488Z,63.00
2017-08-30T14:25:31.836Z,62.70
2017-08-30T14:28:00.983Z,62.90
2017-08-30T14:30:30.974Z,62.20
2017-08-30T14:33:00.391Z,62.60
2017-08-30T14:35:29.578Z,62.20
2017-08-30T14:37:58.738Z,61.60
2017-08-30T14:40:27.921Z,61.60
2017-08-30T14:42:57.241Z,61.70
2017-08-30T14:45:26.377Z,61.80
2017-08-30T14:47:55.820Z,60.70
2017-08-30T14:50:25.331Z,60.50
2017-08-30T14:52:54.388Z,60.70
2017-08-30T14:55:23.587Z,61.30
2017-08-30T14:57:53.178Z,60.70
2017-08-30T15:00:22.484Z,59.90
2017-08-30T15:02:51.634Z,59.80
2017-08-30T15:05:21.055Z,59.00
2017-08-30T15:07:50.359Z,60.10
2017-08-30T15:10:19.912Z,60.80
2017-08-30T15:12:49.789Z,59.70
2017-08-30T15:15:18.922Z,60.00
2017-08-30T15:17:47.919Z,59.90
2017-08-30T15:20:17.098Z,59.00
2017-08-30T15:22:47.098Z,58.80
2017-08-30T15:25:16.405Z,58.00
2017-08-30T15:27:46.000Z,57.40
2017-08-30T15:30:15.548Z,56.40
2017-08-30T15:32:45.578Z,56.40
2017-08-30T15:35:14.896Z,56.00
2017-08-30T15:37:44.232Z,55.00
2017-08-30T15:40:13.370Z,55.40
2017-08-30T15:42:42.661Z,55.10
2017-08-30T15:45:11.849Z,55.20
2017-08-30T15:47:41.061Z,54.80
2017-08-30T15:50:10.466Z,55.00
2017-08-30T15:52:39.805Z,55.40
2017-08-30T15:55:10.265Z,54.80
2017-08-30T15:57:39.461Z,54.70
2017-08-30T16:00:08.589Z,54.40
2017-08-30T16:02:37.864Z,54.40
2017-08-30T16:05:07.358Z,53.80
2017-08-30T16:07:36.511Z,53.20
2017-08-30T16:10:05.924Z,52.70
2017-08-30T16:12:35.198Z,53.20
2017-08-30T16:15:04.734Z,53.50
2017-08-30T16:17:34.056Z,52.80
2017-08-30T16:20:03.480Z,51.40
2017-08-30T16:22:32.893Z,51.90
2017-08-30T16:25:02.253Z,51.50
2017-08-30T16:27:31.784Z,50.70
2017-08-30T16:30:01.101Z,51.30
2017-08-30T16:32:30.570Z,52.00
2017-08-30T16:35:00.342Z,51.30
2017-08-30T16:37:29.684Z,52.10
2017-08-30T16:39:58.936Z,52.20
2017-08-30T16:42:29.973Z,51.90
2017-08-30T16:44:58.991Z,51.20
2017-08-30T16:47:28.429Z,51.10
2017-08-30T16:49:57.670Z,51.20
2017-08-30T16:52:26.835Z,51.60
2017-08-30T16:54:56.295Z,52.10
2017-08-30T16:57:25.591Z,52.60
2017-08-30T16:59:54.605Z,52.80
2017-08-30T17:02:24.269Z,51.80
2017-08-30T17:04:53.639Z,51.40
2017-08-30T17:07:23.100Z,51.70
2017-08-30T17:09:55.327Z,51.00
2017-08-30T17:12:25.600Z,49.50
2017-08-30T17:14:54.974Z,49.80
2017-08-30T17:17:24.302Z,49.70
2017-08-30T17:19:54.192Z,50.40
2017-08-30T17:22:23.788Z,51.20
2017-08-30T17:24:53.222Z,50.50
2017-08-30T17:27:22.707Z,50.10
2017-08-30T17:29:51.900Z,49.80
2017-08-30T17:32:22.063Z,48.50
2017-08-30T17:34:51.291Z,47.90
2017-08-30T17:37:21.314Z,47.50
2017-08-30T17:39:50.606Z,49.10
2017-08-30T17:42:20.031Z,50.10
2017-08-30T17:44:49.516Z,49.40
2017-08-30T17:47:18.618Z,48.60
2017-08-30T17:49:47.816Z,48.50
2017-08-30T17:52:17.134Z,47.70
2017-08-30T17:54:46.448Z,47.10
2017-08-30T17:57:15.930Z,45.30
2017-08-30T17:59:46.021Z,45.80
2017-08-30T18:02:15.188Z,45.10
2017-08-30T18:04:44.321Z,44.80
2017-08-30T18:07:13.783Z,43.40
2017-08-30T18:09:42.628Z,43.40
2017-08-30T18:12:12.082Z,42.40
2017-08-30T18:14:41.143Z,43.20
2017-08-30T18:17:10.526Z,44.10
2017-08-30T18:19:39.901Z,44.10
2017-08-30T18:22:09.204Z,44.80
2017-08-30T18:24:38.477Z,44.80
2017-08-30T18:27:08.549Z,43.20
2017-08-30T18:29:37.947Z,43.20
2017-08-30T18:32:07.361Z,43.10
2017-08-30T18:34:36.668Z,43.70
2017-08-30T18:37:05.875Z,43.50
2017-08-30T18:39:36.358Z,43.10
2017-08-30T18:42:05.747Z,42.30
2017-08-30T18:44:35.435Z,41.80
2017-08-30T18:47:04.712Z,40.50
2017-08-30T18:49:34.105Z,39.50
2017-08-30T18:52:03.355Z,39.60
2017-08-30T18:54:32.587Z,37.00
2017-08-30T18:57:01.850Z,35.60
2017-08-30T18:59:31.201Z,34.30
2017-08-30T19:02:00.600Z,34.90
2017-08-30T19:04:29.885Z,33.70
2017-08-30T19:06:59.337Z,32.60
2017-08-30T19:09:28.833Z,32.80
2017-08-30T19:11:58.105Z,34.70
2017-08-30T19:14:27.365Z,34.10
2017-08-30T19:16:56.590Z,32.20
2017-08-30T19:19:26.811Z,30.00
2017-08-30T19:21:56.026Z,30.00
2017-08-30T19:24:28.702Z,30.00
2017-08-30T19:26:57.878Z,28.70
2017-08-30T19:29:27.324Z,28.60
2017-08-30T19:31:56.413Z,29.20
2017-08-30T19:34:25.769Z,28.70
2017-08-30T19:36:54.979Z,29.10
2017-08-30T19:39:24.212Z,29.50
2017-08-30T19:41:54.673Z,28.40
2017-08-30T19:44:23.809Z,28.70
2017-08-30T19:46:53.164Z,28.10
2017-08-30T19:49:23.398Z,28.30
2017-08-30T19:51:52.490Z,29.00
2017-08-30T19:54:21.725Z,29.60
2017-08-30T19:56:51.156Z,29.80
2017-08-30T19:59:20.578Z,30.90
2017-08-30T20:01:49.738Z,32.60
2017-08-30T20:04:18.957Z,31.20
2017-08-30T20:06:48.070Z,30.20
2017-08-30T20:09:17.550Z,30.50
2017-08-30T20:11:47.076Z,30.20
2017-08-30T20:14:16.376Z,30.00
2017-08-30T20:16:45.513Z,29.90
2017-08-30T20:19:14.877Z,29.30
2017-08-30T20:21:44.077Z,31.00
2017-08-30T20:24:13.192Z,31.40
2017-08-30T20:26:42.504Z,32.40
2017-08-30T20:29:11.696Z,31.70
2017-08-30T20:31:40.787Z,31.40
2017-08-30T20:34:10.216Z,31.90
2017-08-30T20:36:39.593Z,32.50
2017-08-30T20:39:08.550Z,32.30
2017-08-30T20:41:38.007Z,32.70
2017-08-30T20:44:08.082Z,33.60
2017-08-30T20:46:37.291Z,33.60
2017-08-30T20:49:06.559Z,33.90
2017-08-30T20:51:35.689Z,34.30
2017-08-30T20:54:05.644Z,34.30
2017-08-30T20:56:35.091Z,33.50
2017-08-30T20:59:04.202Z,33.10
2017-08-30T21:01:33.402Z,32.80
2017-08-30T21:04:02.422Z,32.00
2017-08-30T21:06:31.497Z,31.50
2017-08-30T21:09:00.771Z,31.80
2017-08-30T21:11:30.227Z,31.70
2017-08-30T21:13:59.419Z,31.20
2017-08-30T21:16:28.605Z,31.90
2017-08-30T21:18:57.868Z,31.30
2017-08-30T21:21:27.155Z,32.30
2017-08-30T21:23:56.422Z,32.80
2017-08-30T21:26:25.643Z,31.90
2017-08-30T21:28:54.898Z,32.20
2017-08-30T21:31:24.105Z,31.50
2017-08-30T21:33:53.241Z,32.00
2017-08-30T21:36:22.412Z,31.10
2017-08-30T21:38:51.677Z,30.70
2017-08-30T21:41:21.067Z,30.80
2017-08-30T21:43:50.371Z,30.10
2017-08-30T21:46:20.689Z,30.00
2017-08-30T21:48:50.140Z,29.20
2017-08-30T21:51:22.759Z,29.90
2017-08-30T21:53:52.117Z,29.20
2017-08-30T21:56:21.402Z,29.20
2017-08-30T21:58:50.657Z,29.20
2017-08-30T22:01:19.979Z,29.30
2017-08-30T22:03:49.336Z,28.90
2017-08-30T22:06:18.945Z,27.80
2017-08-30T22:08:48.429Z,27.10
2017-08-30T22:11:17.820Z,28.10
2017-08-30T22:13:46.918Z,27.90
2017-08-30T22:16:16.285Z,27.90
2017-08-30T22:18:45.513Z,28.00
2017-08-30T22:21:14.800Z,28.20
2017-08-30T22:23:43.891Z,27.80
2017-08-30T22:26:13.290Z,27.40
2017-08-30T22:28:42.456Z,27.90
2017-08-30T22:31:11.724Z,27.90
2017-08-30T22:33:41.252Z,27.90
2017-08-30T22:36:10.621Z,27.20
2017-08-30T22:38:40.166Z,26.80
2017-08-30T22:41:09.593Z,26.60
2017-08-30T22:43:45.602Z,26.50
2017-08-30T22:46:15.375Z,26.00
2017-08-30T22:48:45.553Z,26.50
2017-08-30T22:51:15.648Z,25.20
2017-08-30T22:53:44.543Z,25.20
2017-08-30T22:56:13.609Z,25.10
2017-08-30T22:58:43.029Z,25.30
2017-08-30T23:01:12.942Z,25.40
2017-08-30T23:03:42.280Z,25.70
2017-08-30T23:06:11.526Z,26.20
2017-08-30T23:08:40.864Z,25.70
2017-08-30T23:11:10.099Z,25.60
2017-08-30T23:13:39.451Z,25.40
2017-08-30T23:16:08.601Z,24.80
2017-08-30T23:18:37.977Z,25.00
2017-08-30T23:21:07.266Z,25.80
2017-08-30T23:23:36.798Z,25.80
2017-08-30T23:26:06.103Z,25.80
2017-08-30T23:28:35.344Z,26.30
2017-08-30T23:31:05.359Z,25.10
2017-08-30T23:33:34.586Z,24.90
2017-08-30T23:36:03.900Z,24.60
2017-08-30T23:38:33.165Z,24.30
2017-08-30T23:41:02.222Z,23.80
2017-08-30T23:43:31.476Z,23.70
2017-08-30T23:46:00.767Z,23.80
2017-08-30T23:48:29.874Z,23.00
2017-08-30T23:51:00.540Z,22.70
2017-08-30T23:53:29.809Z,23.20
2017-08-30T23:55:59.101Z,23.50
2017-08-30T23:58:28.529Z,23.20
